createdAt,value
2023-01-17T00:02:24.035Z,4.07
2023-01-17T00:07:45.476Z,4.06
2023-01-17T00:12:56.264Z,4.05
2023-01-17T00:17:58.725Z,4.06
2023-01-17T00:23:19.023Z,4.06
2023-01-17T00:28:21.076Z,4.05
2023-01-17T00:33:24.016Z,4.14
2023-01-17T00:38:28.331Z,4.28
2023-01-17T00:43:49.509Z,4.40
2023-01-17T00:49:10.503Z,4.51
2023-01-17T00:54:31.225Z,4.60
2023-01-17T00:59:51.632Z,4.64
2023-01-17T01:05:12.820Z,4.71
2023-01-17T01:10:33.743Z,4.75
2023-01-17T01:15:54.669Z,4.79
2023-01-17T01:21:15.284Z,4.80
2023-01-17T01:26:35.692Z,4.82
2023-01-17T01:31:56.056Z,4.86
2023-01-17T01:36:57.802Z,4.88
2023-01-17T01:41:59.638Z,4.90
2023-01-17T01:47:02.467Z,4.94
2023-01-17T01:52:07.730Z,4.96
2023-01-17T01:57:14.042Z,4.99
2023-01-17T02:02:16.247Z,5.02
2023-01-17T02:07:25.472Z,5.03
2023-01-17T02:12:27.851Z,5.04
2023-01-17T02:17:46.069Z,5.05
2023-01-17T02:23:06.315Z,5.09
2023-01-17T02:28:17.182Z,5.07
2023-01-17T02:33:39.640Z,5.08
2023-01-17T02:38:41.567Z,5.08
2023-01-17T02:43:43.982Z,5.11
2023-01-17T02:48:47.747Z,5.14
2023-01-17T02:54:14.227Z,5.15
2023-01-17T02:59:31.182Z,5.19
2023-01-17T03:04:51.843Z,5.22
2023-01-17T03:09:59.918Z,5.25
2023-01-17T03:15:01.898Z,5.28
2023-01-17T03:20:03.875Z,5.30
2023-01-17T03:25:07.042Z,5.31
2023-01-17T03:30:09.424Z,5.34
2023-01-17T03:35:11.257Z,5.38
2023-01-17T03:40:13.199Z,5.39
2023-01-17T03:45:15.117Z,5.39
2023-01-17T03:50:17.192Z,5.40
2023-01-17T03:55:19.481Z,5.38
2023-01-17T04:00:21.501Z,5.36
2023-01-17T04:05:23.507Z,5.37
2023-01-17T04:10:25.321Z,5.37
2023-01-17T04:15:27.233Z,5.36
2023-01-17T04:20:40.253Z,5.35
2023-01-17T04:25:42.202Z,5.31
2023-01-17T04:30:44.121Z,5.30
2023-01-17T04:35:46.010Z,5.28
2023-01-17T04:40:48.783Z,5.28
2023-01-17T04:45:57.978Z,5.27
2023-01-17T04:51:05.141Z,5.27
2023-01-17T04:56:07.401Z,5.28
2023-01-17T05:01:09.991Z,5.26
2023-01-17T05:06:11.866Z,5.26
2023-01-17T05:11:14.351Z,5.26
2023-01-17T05:16:19.415Z,5.26
2023-01-17T05:21:21.621Z,5.27
2023-01-17T05:26:24.028Z,5.27
2023-01-17T05:31:25.901Z,5.27
2023-01-17T05:36:28.053Z,5.26
2023-01-17T05:41:30.134Z,5.25
2023-01-17T05:46:32.012Z,5.24
2023-01-17T05:51:37.734Z,5.22
2023-01-17T05:56:39.593Z,5.19
2023-01-17T06:01:41.396Z,5.15
2023-01-17T06:06:43.198Z,5.12
2023-01-17T06:11:45.022Z,5.07
2023-01-17T06:16:47.862Z,5.03
2023-01-17T06:21:49.811Z,4.98
2023-01-17T06:26:51.745Z,4.94
2023-01-17T06:31:53.805Z,4.88
2023-01-17T06:36:55.687Z,4.85
2023-01-17T06:41:57.798Z,4.84
2023-01-17T06:46:59.736Z,4.83
2023-01-17T06:52:01.568Z,4.81
2023-01-17T06:57:03.471Z,4.78
2023-01-17T07:02:05.770Z,4.80
2023-01-17T07:07:07.611Z,4.80
2023-01-17T07:12:10.345Z,4.79
2023-01-17T07:17:12.577Z,4.76
2023-01-17T07:22:14.727Z,4.72
2023-01-17T07:27:17.165Z,4.72
2023-01-17T07:32:19.463Z,4.70
2023-01-17T07:37:22.223Z,4.69
2023-01-17T07:42:24.781Z,4.69
2023-01-17T07:47:26.859Z,4.69
2023-01-17T07:52:28.990Z,4.66
2023-01-17T07:57:32.653Z,4.65
2023-01-17T08:02:34.444Z,4.61
2023-01-17T08:07:37.266Z,4.58
2023-01-17T08:12:42.090Z,4.56
2023-01-17T08:17:48.689Z,4.53
2023-01-17T08:22:56.601Z,4.50
2023-01-17T08:27:58.856Z,4.60
2023-01-17T08:33:00.656Z,4.66
2023-01-17T08:38:04.959Z,4.68
2023-01-17T08:43:06.723Z,4.67
2023-01-17T08:48:08.549Z,4.66
2023-01-17T08:53:10.731Z,4.73
2023-01-17T08:58:13.058Z,4.85
2023-01-17T09:03:15.039Z,4.92
2023-01-17T09:08:16.840Z,4.93
2023-01-17T09:13:18.695Z,4.84
2023-01-17T09:18:20.605Z,4.79
2023-01-17T09:23:23.280Z,4.80
2023-01-17T09:28:26.439Z,4.86
2023-01-17T09:33:28.324Z,4.92
2023-01-17T09:38:30.923Z,4.95
2023-01-17T09:43:48.235Z,5.00
2023-01-17T09:49:01.970Z,5.06
2023-01-17T09:54:04.982Z,5.13
2023-01-17T09:59:19.038Z,5.16
2023-01-17T10:04:51.998Z,5.19
2023-01-17T10:10:00.709Z,5.25
2023-01-17T10:15:21.450Z,5.31
2023-01-17T10:20:43.204Z,5.31
2023-01-17T10:25:49.750Z,5.41
2023-01-17T10:31:25.408Z,5.45
2023-01-17T10:36:34.548Z,5.38
2023-01-17T10:41:43.893Z,5.39
2023-01-17T10:46:56.051Z,5.36
2023-01-17T10:52:34.998Z,5.33
2023-01-17T10:57:45.690Z,5.33
2023-01-17T11:02:51.254Z,5.33
2023-01-17T11:08:08.105Z,5.35
2023-01-17T11:13:30.705Z,5.34
2023-01-17T11:18:36.588Z,5.34
2023-01-17T11:23:44.637Z,5.31
2023-01-17T11:28:46.984Z,5.33
2023-01-17T11:34:05.369Z,5.32
2023-01-17T11:39:27.710Z,5.27
2023-01-17T11:44:35.411Z,5.31
2023-01-17T11:49:37.678Z,5.36
2023-01-17T11:54:42.886Z,5.39
2023-01-17T11:59:46.014Z,5.40
2023-01-17T12:05:18.707Z,5.44
2023-01-17T12:11:08.528Z,5.42
2023-01-17T12:16:29.448Z,5.40
2023-01-17T12:21:48.585Z,5.37
2023-01-17T12:26:56.149Z,5.39
2023-01-17T12:32:06.475Z,5.45
2023-01-17T12:37:21.758Z,5.42
2023-01-17T12:42:31.049Z,5.38
2023-01-17T12:47:37.910Z,5.38
2023-01-17T12:53:28.344Z,5.36
2023-01-17T12:58:38.376Z,5.35
2023-01-17T13:03:57.606Z,5.37
2023-01-17T13:09:02.642Z,5.35
2023-01-17T13:14:08.841Z,5.36
2023-01-17T13:25:50.508Z,5.35
2023-01-17T13:31:15.871Z,5.36
2023-01-17T13:36:36.332Z,5.36
2023-01-17T13:42:01.566Z,5.37
2023-01-17T13:47:17.429Z,5.39
2023-01-17T13:52:19.171Z,5.42
2023-01-17T13:57:29.554Z,5.40
2023-01-17T14:02:31.627Z,5.39
2023-01-17T14:07:36.030Z,5.39
2023-01-17T14:12:39.240Z,5.36
2023-01-17T14:17:50.963Z,5.32
2023-01-17T14:23:02.461Z,5.31
2023-01-17T14:28:31.435Z,5.27
2023-01-17T14:33:39.873Z,5.22
2023-01-17T14:38:43.770Z,5.18
2023-01-17T14:43:48.596Z,5.13
2023-01-17T14:48:52.730Z,5.06
2023-01-17T14:53:59.472Z,5.03
2023-01-17T14:59:20.261Z,4.99
2023-01-17T15:04:30.724Z,4.94
2023-01-17T15:09:37.171Z,4.88
2023-01-17T15:14:44.532Z,4.80
2023-01-17T15:20:11.301Z,4.72
2023-01-17T15:25:16.081Z,4.58
2023-01-17T15:30:18.713Z,4.45
2023-01-17T15:35:21.186Z,4.39
2023-01-17T15:40:25.365Z,4.40
2023-01-17T15:45:29.932Z,4.42
2023-01-17T15:50:32.269Z,4.42
2023-01-17T15:55:36.756Z,4.36
2023-01-17T16:00:39.435Z,4.31
2023-01-17T16:05:43.908Z,4.22
2023-01-17T16:10:45.851Z,4.17
2023-01-17T16:15:47.988Z,4.13
2023-01-17T16:20:55.210Z,4.07
2023-01-17T16:25:57.040Z,4.02
2023-01-17T16:30:59.061Z,3.97
2023-01-17T16:36:01.188Z,3.94
2023-01-17T16:41:04.592Z,3.89
2023-01-17T16:46:06.782Z,3.84
2023-01-17T16:51:08.769Z,3.78
2023-01-17T16:56:14.531Z,3.71
2023-01-17T17:01:20.845Z,3.64
2023-01-17T17:06:22.880Z,3.58
2023-01-17T17:11:25.239Z,3.49
2023-01-17T17:16:31.504Z,3.41
2023-01-17T17:21:35.249Z,3.35
2023-01-17T17:26:37.448Z,3.29
2023-01-17T17:31:41.206Z,3.27
2023-01-17T17:36:43.551Z,3.22
2023-01-17T17:41:45.946Z,3.18
2023-01-17T17:46:49.773Z,3.12
2023-01-17T17:51:51.821Z,3.07
2023-01-17T17:56:53.961Z,3.04
2023-01-17T18:01:55.970Z,3.00
2023-01-17T18:06:58.356Z,2.99
2023-01-17T18:12:01.238Z,2.95
2023-01-17T18:17:03.032Z,2.88
2023-01-17T18:22:04.858Z,2.85
2023-01-17T18:27:06.946Z,2.81
2023-01-17T18:32:08.817Z,2.76
2023-01-17T18:37:10.907Z,2.73
2023-01-17T18:42:12.842Z,2.70
2023-01-17T18:47:14.717Z,2.66
2023-01-17T18:52:17.604Z,2.60
2023-01-17T18:57:19.442Z,2.57
2023-01-17T19:02:21.450Z,2.57
2023-01-17T19:07:24.166Z,2.54
2023-01-17T19:12:26.462Z,2.51
2023-01-17T19:17:28.207Z,2.48
2023-01-17T19:22:30.754Z,2.43
2023-01-17T19:27:33.117Z,2.40
2023-01-17T19:32:34.983Z,2.37
2023-01-17T19:37:37.171Z,2.35
2023-01-17T19:42:40.678Z,2.34
2023-01-17T19:47:42.441Z,2.32
2023-01-17T19:52:44.365Z,2.29
2023-01-17T19:57:46.150Z,2.25
2023-01-17T20:02:48.154Z,2.22
2023-01-17T20:07:50.095Z,2.19
2023-01-17T20:12:52.305Z,2.14
2023-01-17T20:17:54.511Z,2.12
2023-01-17T20:22:56.610Z,2.09
2023-01-17T20:27:58.927Z,2.04
2023-01-17T20:33:00.979Z,2.02
2023-01-17T20:38:02.869Z,2.04
2023-01-17T20:43:04.724Z,2.02
2023-01-17T20:48:06.642Z,2.01
2023-01-17T20:53:08.388Z,2.00
2023-01-17T20:58:10.198Z,1.98
2023-01-17T21:03:12.438Z,1.97
2023-01-17T21:08:17.745Z,1.95
2023-01-17T21:13:20.701Z,1.93
2023-01-17T21:18:24.289Z,1.94
2023-01-17T21:23:29.365Z,1.95
2023-01-17T21:28:34.515Z,1.95
2023-01-17T21:33:36.301Z,1.93
2023-01-17T21:38:38.935Z,1.93
2023-01-17T21:43:40.958Z,1.94
2023-01-17T21:48:44.556Z,1.93
2023-01-17T21:53:46.363Z,1.92
2023-01-17T21:58:53.797Z,1.91
2023-01-17T22:03:58.542Z,1.92
2023-01-17T22:09:00.526Z,1.90
2023-01-17T22:14:05.208Z,1.87
2023-01-17T22:19:07.111Z,1.86
2023-01-17T22:24:09.549Z,1.86
2023-01-17T22:29:11.484Z,1.85
2023-01-17T22:34:14.076Z,1.83
2023-01-17T22:39:15.863Z,1.85
2023-01-17T22:44:18.061Z,1.86
2023-01-17T22:49:23.503Z,1.88
2023-01-17T22:54:25.332Z,1.88
2023-01-17T22:59:27.199Z,1.87
2023-01-17T23:04:29.239Z,1.82
2023-01-17T23:09:31.139Z,1.78
2023-01-17T23:14:54.038Z,1.77
2023-01-17T23:19:55.847Z,1.80
2023-01-17T23:25:00.166Z,1.86
2023-01-17T23:30:04.618Z,1.92
2023-01-17T23:35:07.128Z,1.99
2023-01-17T23:40:10.048Z,2.05
2023-01-17T23:45:11.832Z,2.05
2023-01-17T23:50:13.727Z,2.09
2023-01-17T23:55:15.678Z,2.11
